createdAt,value
2022-09-26T00:00:59.896Z,44.15
2022-09-26T00:01:44.821Z,45.58
2022-09-26T00:02:25.856Z,46.54
2022-09-26T00:03:05.748Z,45.70
2022-09-26T00:03:53.827Z,45.01
2022-09-26T00:04:32.818Z,44.99
2022-09-26T00:05:20.777Z,44.53
2022-09-26T00:05:54.291Z,42.24
2022-09-26T00:06:42.747Z,39.88
2022-09-26T00:07:16.339Z,39.04
2022-09-26T00:08:03.732Z,40.64
2022-09-26T00:08:37.501Z,42.59
2022-09-26T00:09:18.763Z,39.69
2022-09-26T00:09:54.383Z,37.47
2022-09-26T00:10:41.745Z,37.44
2022-09-26T00:11:18.812Z,38.44
2022-09-26T00:12:05.742Z,41.75
2022-09-26T00:12:39.849Z,41.54
2022-09-26T00:13:26.749Z,40.45
2022-09-26T00:14:02.901Z,41.94
2022-09-26T00:14:42.789Z,42.19
2022-09-26T00:15:22.840Z,41.88
2022-09-26T00:16:03.737Z,42.13
2022-09-26T00:16:44.821Z,42.94
2022-09-26T00:17:24.722Z,43.59
2022-09-26T00:18:04.813Z,41.22
2022-09-26T00:18:45.756Z,39.70
2022-09-26T00:19:25.828Z,36.66
2022-09-26T00:20:05.786Z,37.64
2022-09-26T00:20:45.867Z,37.71
2022-09-26T00:21:26.730Z,36.83
2022-09-26T00:22:06.817Z,36.04
2022-09-26T00:22:46.744Z,34.10
2022-09-26T00:23:26.818Z,34.14
2022-09-26T00:24:08.731Z,34.01
2022-09-26T00:24:48.816Z,33.21
2022-09-26T00:25:28.765Z,34.99
2022-09-26T00:26:09.875Z,35.53
2022-09-26T00:26:50.761Z,35.63
2022-09-26T00:27:30.856Z,36.60
2022-09-26T00:28:10.759Z,37.00
2022-09-26T00:28:50.815Z,38.04
2022-09-26T00:29:31.728Z,38.06
2022-09-26T00:30:12.275Z,37.33
2022-09-26T00:30:52.827Z,39.40
2022-09-26T00:31:37.837Z,41.88
2022-09-26T00:32:17.764Z,42.92
2022-09-26T00:32:57.790Z,43.53
2022-09-26T00:33:39.005Z,43.70
2022-09-26T00:34:20.902Z,43.47
2022-09-26T00:35:00.694Z,42.74
2022-09-26T00:35:40.818Z,43.08
2022-09-26T00:36:26.831Z,40.60
2022-09-26T00:37:16.894Z,38.72
2022-09-26T00:37:57.729Z,37.71
2022-09-26T00:38:37.812Z,38.17
2022-09-26T00:39:20.704Z,40.44
2022-09-26T00:40:00.910Z,38.76
2022-09-26T00:40:40.747Z,41.49
2022-09-26T00:41:28.772Z,47.84
2022-09-26T00:42:29.707Z,52.64
2022-09-26T00:44:02.704Z,53.51
2022-09-26T00:45:05.823Z,53.95
2022-09-26T00:45:59.801Z,53.60
2022-09-26T00:46:53.730Z,50.54
2022-09-26T00:47:50.842Z,46.88
2022-09-26T00:48:38.713Z,45.06
2022-09-26T00:49:26.790Z,47.65
2022-09-26T00:50:29.691Z,46.05
2022-09-26T00:51:03.794Z,43.33
2022-09-26T00:52:14.764Z,44.85
2022-09-26T00:52:59.849Z,44.51
2022-09-26T00:53:50.724Z,45.76
2022-09-26T00:54:25.804Z,49.90
2022-09-26T00:55:13.793Z,49.66
2022-09-26T00:55:52.797Z,53.75
2022-09-26T00:56:42.716Z,63.74
2022-09-26T00:57:37.759Z,86.45
2022-09-26T00:58:52.712Z,102.18
2022-09-26T00:59:53.712Z,98.82
2022-09-26T01:00:47.777Z,78.13
2022-09-26T01:01:41.846Z,67.29
2022-09-26T01:02:35.754Z,59.97
2022-09-26T01:03:15.691Z,53.39
2022-09-26T01:03:56.771Z,48.24
2022-09-26T01:04:40.688Z,45.78
2022-09-26T01:05:22.759Z,43.00
2022-09-26T01:06:02.675Z,43.45
2022-09-26T01:06:42.780Z,42.84
2022-09-26T01:07:28.684Z,40.33
2022-09-26T01:08:08.731Z,40.92
2022-09-26T01:08:46.724Z,41.31
2022-09-26T01:09:33.703Z,38.42
2022-09-26T01:10:10.226Z,38.35
2022-09-26T01:10:57.722Z,40.13
2022-09-26T01:11:32.337Z,38.97
2022-09-26T01:12:20.689Z,38.11
2022-09-26T01:12:54.749Z,37.85
2022-09-26T01:13:36.727Z,35.89
2022-09-26T01:14:18.806Z,37.88
2022-09-26T01:15:00.667Z,37.14
2022-09-26T01:15:40.847Z,36.09
2022-09-26T01:16:20.743Z,38.74
2022-09-26T01:17:02.079Z,36.67
2022-09-26T01:17:44.764Z,37.14
2022-09-26T01:18:24.776Z,37.91
2022-09-26T01:19:05.864Z,38.29
2022-09-26T01:19:50.399Z,39.61
2022-09-26T01:20:33.725Z,37.19
2022-09-26T01:21:37.746Z,38.19
2022-09-26T01:22:28.648Z,36.81
2022-09-26T01:23:24.767Z,36.64
2022-09-26T01:24:43.704Z,37.70
2022-09-26T01:25:53.756Z,39.14
2022-09-26T01:26:46.667Z,37.33
2022-09-26T01:27:50.748Z,37.97
2022-09-26T01:28:46.671Z,38.22
2022-09-26T01:29:39.023Z,37.64
2022-09-26T01:30:21.735Z,38.81
2022-09-26T01:31:13.945Z,37.35
2022-09-26T01:32:36.660Z,37.11
2022-09-26T01:33:24.394Z,37.51
2022-09-26T01:34:20.704Z,38.10
2022-09-26T01:35:19.816Z,37.25
2022-09-26T01:36:17.720Z,37.44
2022-09-26T01:37:37.265Z,35.30
2022-09-26T01:38:50.653Z,35.20
2022-09-26T01:39:44.756Z,35.58
2022-09-26T01:40:58.684Z,36.65
2022-09-26T01:42:15.764Z,36.29
2022-09-26T01:43:21.802Z,37.60
2022-09-26T01:44:35.669Z,37.04
2022-09-26T01:45:18.975Z,36.05
2022-09-26T01:46:37.661Z,34.56
2022-09-26T01:47:27.725Z,34.86
2022-09-26T01:48:16.787Z,35.04
2022-09-26T01:49:15.829Z,37.16
2022-09-26T01:49:58.688Z,35.26
2022-09-26T01:50:54.720Z,35.75
2022-09-26T01:51:33.217Z,35.79
2022-09-26T01:52:41.858Z,36.79
2022-09-26T01:53:33.472Z,36.35
2022-09-26T01:54:28.815Z,34.09
2022-09-26T01:55:13.469Z,34.45
2022-09-26T01:56:23.657Z,35.11
2022-09-26T01:56:58.687Z,37.05
2022-09-26T01:57:51.724Z,37.46
2022-09-26T01:58:33.085Z,36.09
2022-09-26T01:59:29.988Z,37.76
2022-09-26T02:00:07.145Z,35.71
2022-09-26T02:00:56.683Z,36.34
2022-09-26T02:01:34.052Z,36.26
2022-09-26T02:02:33.724Z,36.16
2022-09-26T02:03:17.683Z,36.35
2022-09-26T02:04:04.676Z,36.78
2022-09-26T02:04:47.657Z,37.70
2022-09-26T02:05:39.905Z,38.42
2022-09-26T02:06:25.650Z,38.36
2022-09-26T02:07:18.723Z,39.31
2022-09-26T02:08:06.619Z,41.13
2022-09-26T02:09:00.713Z,36.90
2022-09-26T02:09:46.769Z,37.86
2022-09-26T02:10:40.912Z,37.64
2022-09-26T02:11:25.698Z,37.54
2022-09-26T02:12:00.799Z,35.91
2022-09-26T02:12:36.713Z,37.44
2022-09-26T02:13:26.611Z,37.09
2022-09-26T02:14:33.671Z,35.54
2022-09-26T02:15:11.704Z,36.92
2022-09-26T02:16:00.664Z,37.11
2022-09-26T02:16:40.654Z,38.35
2022-09-26T02:17:31.627Z,35.84
2022-09-26T02:18:12.840Z,36.30
2022-09-26T02:19:04.705Z,38.06
2022-09-26T02:19:58.664Z,36.45
2022-09-26T02:20:41.734Z,36.86
2022-09-26T02:21:27.607Z,37.71
2022-09-26T02:22:08.687Z,37.13
2022-09-26T02:22:48.659Z,35.88
2022-09-26T02:23:28.767Z,35.88
2022-09-26T02:24:09.617Z,35.83
2022-09-26T02:24:49.679Z,34.76
2022-09-26T02:25:29.661Z,35.99
2022-09-26T02:26:09.668Z,36.45
2022-09-26T02:26:49.697Z,36.06
2022-09-26T02:27:30.671Z,35.81
2022-09-26T02:28:10.599Z,35.08
2022-09-26T02:28:51.717Z,36.55
2022-09-26T02:29:32.620Z,38.26
2022-09-26T02:30:13.751Z,41.63
2022-09-26T02:30:55.636Z,47.21
2022-09-26T02:31:41.783Z,42.39
2022-09-26T02:32:25.621Z,39.29
2022-09-26T02:33:06.694Z,45.66
2022-09-26T02:33:46.591Z,43.89
2022-09-26T02:34:26.660Z,43.83
2022-09-26T02:35:07.664Z,44.14
2022-09-26T02:35:54.863Z,41.54
2022-09-26T02:36:35.651Z,41.64
2022-09-26T02:37:15.860Z,41.96
2022-09-26T02:38:02.607Z,42.80
2022-09-26T02:38:37.894Z,42.30
2022-09-26T02:39:24.594Z,44.01
2022-09-26T02:39:59.080Z,45.25
2022-09-26T02:41:08.618Z,44.33
2022-09-26T02:42:03.635Z,44.58
2022-09-26T02:43:11.709Z,43.49
2022-09-26T02:44:08.604Z,41.36
2022-09-26T02:45:18.625Z,43.08
2022-09-26T02:46:29.582Z,41.79
2022-09-26T02:48:04.791Z,37.42
2022-09-26T02:49:22.619Z,38.14
2022-09-26T02:50:46.613Z,38.05
2022-09-26T02:52:08.599Z,33.74
2022-09-26T02:53:31.794Z,36.64
2022-09-26T02:54:36.604Z,39.03
2022-09-26T02:55:59.638Z,42.60
2022-09-26T02:57:08.586Z,46.15
2022-09-26T02:58:32.620Z,47.81
2022-09-26T02:59:35.618Z,46.14
2022-09-26T03:00:42.689Z,46.99
2022-09-26T03:02:07.585Z,47.60
2022-09-26T03:03:17.651Z,47.42
2022-09-26T03:04:00.638Z,45.34
2022-09-26T03:05:03.799Z,43.01
2022-09-26T03:05:44.561Z,42.78
2022-09-26T03:06:29.647Z,42.72
2022-09-26T03:07:13.568Z,41.81
2022-09-26T03:08:24.659Z,38.86
2022-09-26T03:09:05.692Z,40.65
2022-09-26T03:09:47.672Z,41.80
2022-09-26T03:10:27.544Z,41.53
2022-09-26T03:11:10.839Z,39.86
2022-09-26T03:11:51.568Z,37.49
2022-09-26T03:12:34.108Z,36.90
2022-09-26T03:13:21.609Z,34.10
2022-09-26T03:14:02.718Z,32.11
2022-09-26T03:14:45.597Z,36.15
2022-09-26T03:15:27.709Z,38.94
2022-09-26T03:16:08.633Z,35.21
2022-09-26T03:17:03.568Z,36.66
2022-09-26T03:18:05.577Z,36.94
2022-09-26T03:19:05.685Z,38.34
2022-09-26T03:20:24.617Z,38.71
2022-09-26T03:21:18.578Z,36.70
2022-09-26T03:22:12.587Z,35.21
2022-09-26T03:23:06.580Z,31.81
2022-09-26T03:24:00.585Z,34.35
2022-09-26T03:24:55.558Z,35.81
2022-09-26T03:25:42.613Z,34.89
2022-09-26T03:26:25.825Z,33.75
2022-09-26T03:27:12.565Z,34.05
2022-09-26T03:27:47.835Z,35.56
2022-09-26T03:28:38.002Z,35.39
2022-09-26T03:29:11.802Z,35.41
2022-09-26T03:29:58.564Z,36.03
2022-09-26T03:30:32.655Z,35.17
2022-09-26T03:31:13.692Z,35.13
2022-09-26T03:31:53.806Z,33.60
2022-09-26T03:32:34.533Z,34.88
2022-09-26T03:33:14.625Z,37.26
2022-09-26T03:33:58.551Z,35.14
2022-09-26T03:34:39.928Z,33.89
2022-09-26T03:35:19.552Z,32.26
2022-09-26T03:36:00.095Z,32.69
2022-09-26T03:36:40.584Z,32.05
2022-09-26T03:37:20.656Z,32.10
2022-09-26T03:38:00.532Z,33.03
2022-09-26T03:38:40.620Z,33.81
2022-09-26T03:39:20.546Z,34.71
2022-09-26T03:40:00.607Z,33.01
2022-09-26T03:40:40.905Z,30.69
2022-09-26T03:41:22.104Z,30.88
2022-09-26T03:42:03.583Z,33.06
2022-09-26T03:42:43.688Z,33.05
2022-09-26T03:43:23.617Z,30.71
2022-09-26T03:44:04.205Z,31.94
2022-09-26T03:44:44.541Z,34.19
2022-09-26T03:45:24.693Z,33.34
2022-09-26T03:46:12.600Z,33.34
2022-09-26T03:46:52.664Z,33.86
2022-09-26T03:47:33.587Z,34.54
2022-09-26T03:48:13.654Z,34.88
2022-09-26T03:48:53.545Z,33.79
2022-09-26T03:49:33.717Z,34.74
2022-09-26T03:50:14.548Z,35.91
2022-09-26T03:50:54.592Z,34.58
2022-09-26T03:51:34.559Z,32.56
2022-09-26T03:52:17.594Z,33.68
2022-09-26T03:52:58.661Z,35.09
2022-09-26T03:53:43.613Z,36.38
2022-09-26T03:54:23.536Z,36.46
2022-09-26T03:55:03.595Z,35.34
2022-09-26T03:55:43.580Z,36.05
2022-09-26T03:56:26.895Z,33.66
2022-09-26T03:57:06.514Z,32.13
2022-09-26T03:57:46.628Z,31.69
2022-09-26T03:58:26.554Z,32.51
2022-09-26T03:59:06.667Z,31.89
2022-09-26T03:59:46.551Z,29.25
2022-09-26T04:00:27.236Z,30.83
2022-09-26T04:01:15.682Z,33.08
2022-09-26T04:01:55.671Z,32.28
2022-09-26T04:02:35.570Z,34.81
2022-09-26T04:03:15.573Z,34.74
2022-09-26T04:03:57.567Z,34.63
2022-09-26T04:04:37.572Z,34.16
2022-09-26T04:05:18.500Z,32.71
2022-09-26T04:05:58.643Z,34.04
2022-09-26T04:06:38.520Z,36.04
2022-09-26T04:07:18.638Z,33.88
2022-09-26T04:07:58.512Z,33.44
2022-09-26T04:08:38.893Z,34.38
2022-09-26T04:09:19.685Z,34.58
2022-09-26T04:09:59.564Z,34.75
2022-09-26T04:10:39.510Z,35.14
2022-09-26T04:11:21.677Z,34.65
2022-09-26T04:12:01.495Z,33.39
2022-09-26T04:12:41.629Z,34.97
2022-09-26T04:13:49.399Z,34.78
2022-09-26T04:14:28.579Z,33.60
2022-09-26T04:15:22.548Z,32.71
2022-09-26T04:16:17.561Z,33.14
2022-09-26T04:17:11.511Z,33.00
2022-09-26T04:18:05.501Z,31.61
2022-09-26T04:19:00.588Z,32.06
2022-09-26T04:19:47.584Z,30.91
2022-09-26T04:20:21.639Z,32.00
2022-09-26T04:21:12.545Z,33.19
2022-09-26T04:21:47.544Z,36.96
2022-09-26T04:22:34.515Z,41.34
2022-09-26T04:23:08.592Z,47.24
2022-09-26T04:23:56.533Z,47.75
2022-09-26T04:24:30.642Z,47.99
2022-09-26T04:25:11.531Z,48.66
2022-09-26T04:25:52.056Z,54.06
2022-09-26T04:26:31.531Z,50.65
2022-09-26T04:27:25.504Z,44.10
2022-09-26T04:28:19.507Z,42.45
2022-09-26T04:29:13.600Z,41.29
2022-09-26T04:30:07.517Z,39.45
2022-09-26T04:30:48.547Z,37.72
2022-09-26T04:31:29.630Z,32.53
2022-09-26T04:32:09.512Z,33.21
2022-09-26T04:32:49.576Z,36.40
2022-09-26T04:33:29.535Z,35.81
2022-09-26T04:34:11.484Z,35.55
2022-09-26T04:34:51.554Z,35.31
2022-09-26T04:35:31.590Z,37.44
2022-09-26T04:36:14.535Z,36.25
2022-09-26T04:36:54.576Z,34.99
2022-09-26T04:37:34.563Z,34.95
2022-09-26T04:38:15.608Z,34.70
2022-09-26T04:38:55.485Z,34.47
2022-09-26T04:39:35.989Z,33.49
2022-09-26T04:40:17.525Z,33.09
2022-09-26T04:40:57.636Z,34.39
2022-09-26T04:41:38.526Z,35.88
2022-09-26T04:42:18.660Z,34.97
2022-09-26T04:42:58.472Z,36.70
2022-09-26T04:43:38.619Z,35.47
2022-09-26T04:44:19.459Z,32.53
2022-09-26T04:44:59.560Z,33.92
2022-09-26T04:45:39.525Z,34.24
2022-09-26T04:46:29.647Z,32.53
2022-09-26T04:47:10.535Z,32.41
2022-09-26T04:47:50.623Z,33.15
2022-09-26T04:48:31.483Z,34.09
2022-09-26T04:49:11.615Z,32.58
2022-09-26T04:49:52.480Z,32.20
2022-09-26T04:50:32.589Z,32.06
2022-09-26T04:51:14.529Z,32.66
2022-09-26T04:51:55.788Z,33.71
2022-09-26T04:52:35.481Z,33.92
2022-09-26T04:53:16.164Z,33.14
2022-09-26T04:53:57.510Z,32.96
2022-09-26T04:54:38.449Z,33.36
2022-09-26T04:55:18.454Z,36.09
2022-09-26T04:55:58.557Z,33.89
2022-09-26T04:56:38.451Z,36.20
2022-09-26T04:57:20.039Z,37.60
2022-09-26T04:58:00.563Z,36.30
2022-09-26T04:58:42.147Z,34.85
2022-09-26T04:59:22.487Z,37.33
2022-09-26T05:00:02.532Z,36.36
2022-09-26T05:00:42.517Z,37.74
2022-09-26T05:01:25.632Z,37.38
2022-09-26T05:02:05.525Z,39.64
2022-09-26T05:02:48.369Z,39.29
2022-09-26T05:03:28.505Z,38.01
2022-09-26T05:04:10.055Z,39.50
2022-09-26T05:04:50.481Z,41.01
2022-09-26T05:05:31.278Z,41.21
2022-09-26T05:06:15.495Z,42.15
2022-09-26T05:06:57.865Z,40.42
2022-09-26T05:07:38.442Z,40.97
2022-09-26T05:08:18.510Z,37.60
2022-09-26T05:08:59.452Z,36.22
2022-09-26T05:09:39.626Z,38.03
2022-09-26T05:10:19.460Z,38.90
2022-09-26T05:11:02.204Z,37.10
2022-09-26T05:11:42.462Z,36.99
2022-09-26T05:12:22.546Z,35.53
2022-09-26T05:13:06.467Z,34.76
2022-09-26T05:13:50.074Z,34.76
2022-09-26T05:14:34.459Z,34.42
2022-09-26T05:15:15.550Z,35.74
2022-09-26T05:16:01.583Z,35.51
2022-09-26T05:16:41.740Z,34.35
2022-09-26T05:17:22.475Z,34.16
2022-09-26T05:18:04.010Z,33.94
2022-09-26T05:18:45.479Z,32.26
2022-09-26T05:19:26.794Z,35.92
2022-09-26T05:20:07.466Z,37.53
2022-09-26T05:20:51.544Z,36.45
2022-09-26T05:21:31.440Z,35.99
2022-09-26T05:22:11.683Z,36.17
2022-09-26T05:22:51.407Z,35.90
2022-09-26T05:23:51.226Z,33.76
2022-09-26T05:24:50.488Z,32.55
2022-09-26T05:25:49.464Z,30.56
2022-09-26T05:26:23.596Z,30.02
2022-09-26T05:27:12.443Z,31.24
2022-09-26T05:27:53.487Z,31.79
2022-09-26T05:28:33.599Z,30.46
2022-09-26T05:29:13.534Z,30.02
2022-09-26T05:29:53.412Z,30.40
2022-09-26T05:30:33.476Z,34.28
2022-09-26T05:31:15.547Z,32.33
2022-09-26T05:31:56.473Z,31.19
2022-09-26T05:32:36.489Z,31.15
2022-09-26T05:33:16.555Z,31.59
2022-09-26T05:33:58.605Z,33.09
2022-09-26T05:34:38.504Z,31.49
2022-09-26T05:35:19.620Z,31.34
2022-09-26T05:35:59.492Z,32.72
2022-09-26T05:36:39.481Z,34.51
2022-09-26T05:37:19.528Z,36.56
2022-09-26T05:38:09.424Z,34.69
2022-09-26T05:38:49.521Z,33.50
2022-09-26T05:39:48.418Z,34.15
2022-09-26T05:40:47.491Z,32.66
2022-09-26T05:41:27.489Z,31.91
2022-09-26T05:42:07.617Z,33.21
2022-09-26T05:42:41.509Z,33.49
2022-09-26T05:43:15.147Z,33.10
2022-09-26T05:43:55.424Z,30.48
2022-09-26T05:44:30.879Z,29.44
2022-09-26T05:45:05.744Z,30.50
2022-09-26T05:45:45.449Z,31.13
2022-09-26T05:46:19.557Z,31.49
2022-09-26T05:46:54.007Z,29.59
2022-09-26T05:47:35.447Z,31.51
2022-09-26T05:48:09.509Z,33.90
2022-09-26T05:48:43.078Z,33.20
2022-09-26T05:49:23.423Z,29.99
2022-09-26T05:49:57.456Z,27.98
2022-09-26T05:50:31.506Z,30.36
2022-09-26T05:51:22.451Z,32.44
2022-09-26T05:51:56.729Z,32.25
2022-09-26T05:52:29.908Z,32.88
2022-09-26T05:53:10.465Z,32.22
2022-09-26T05:53:44.451Z,33.24
2022-09-26T05:54:17.994Z,34.26
2022-09-26T05:54:58.412Z,31.99
2022-09-26T05:55:33.499Z,33.17
2022-09-26T05:56:08.654Z,32.46
2022-09-26T05:56:48.416Z,34.38
2022-09-26T05:57:22.520Z,34.19
2022-09-26T05:57:58.912Z,35.31
2022-09-26T05:58:40.513Z,38.28
2022-09-26T05:59:14.651Z,37.63
2022-09-26T05:59:47.904Z,36.80
2022-09-26T06:00:27.392Z,38.51
2022-09-26T06:01:01.564Z,37.11
2022-09-26T06:01:35.376Z,37.69
2022-09-26T06:03:12.497Z,40.89
2022-09-26T06:03:53.470Z,40.22
2022-09-26T06:04:33.697Z,39.47
2022-09-26T06:05:13.417Z,37.63
2022-09-26T06:05:53.536Z,35.49
2022-09-26T06:06:33.405Z,38.04
2022-09-26T06:07:13.491Z,38.95
2022-09-26T06:07:53.417Z,37.69
2022-09-26T06:08:34.514Z,39.04
2022-09-26T06:09:14.518Z,40.21
2022-09-26T06:09:54.502Z,39.30
2022-09-26T06:10:34.417Z,40.04
2022-09-26T06:11:22.590Z,43.15
2022-09-26T06:12:02.382Z,45.09
2022-09-26T06:12:42.708Z,42.85
2022-09-26T06:13:23.422Z,41.51
2022-09-26T06:14:04.470Z,43.17
2022-09-26T06:14:44.420Z,42.10
2022-09-26T06:15:24.910Z,37.76
2022-09-26T06:16:12.438Z,35.54
2022-09-26T06:16:52.531Z,39.10
2022-09-26T06:17:33.424Z,37.59
2022-09-26T06:18:13.507Z,36.54
2022-09-26T06:18:54.385Z,36.50
2022-09-26T06:19:34.468Z,36.39
2022-09-26T06:20:15.445Z,38.36
2022-09-26T06:20:49.085Z,35.00
2022-09-26T06:21:36.376Z,36.01
2022-09-26T06:22:16.629Z,39.40
2022-09-26T06:22:56.453Z,37.66
2022-09-26T06:23:37.501Z,36.46
2022-09-26T06:24:18.407Z,38.85
2022-09-26T06:24:59.081Z,42.70
2022-09-26T06:25:39.403Z,37.96
2022-09-26T06:26:23.593Z,35.95
2022-09-26T06:27:03.395Z,35.72
2022-09-26T06:27:43.588Z,32.22
2022-09-26T06:28:25.385Z,33.13
2022-09-26T06:29:07.505Z,33.63
2022-09-26T06:29:47.396Z,32.35
2022-09-26T06:30:27.622Z,29.84
2022-09-26T06:31:14.449Z,30.94
2022-09-26T06:31:54.569Z,30.20
2022-09-26T06:32:35.382Z,32.19
2022-09-26T06:33:15.557Z,30.91
2022-09-26T06:33:59.395Z,27.20
2022-09-26T06:34:39.425Z,28.50
2022-09-26T06:35:20.358Z,29.66
2022-09-26T06:36:21.424Z,27.89
2022-09-26T06:37:15.392Z,28.81
2022-09-26T06:38:10.385Z,29.44
2022-09-26T06:39:05.505Z,27.80
2022-09-26T06:39:59.685Z,25.42
2022-09-26T06:40:53.385Z,22.64
2022-09-26T06:41:41.387Z,23.13
2022-09-26T06:42:15.478Z,21.73
2022-09-26T06:43:02.368Z,19.77
2022-09-26T06:43:36.490Z,20.05
2022-09-26T06:44:23.369Z,19.49
2022-09-26T06:44:57.478Z,19.63
2022-09-26T06:45:46.349Z,19.77
2022-09-26T06:46:21.618Z,20.59
2022-09-26T06:47:01.436Z,20.46
2022-09-26T06:47:41.423Z,19.41
2022-09-26T06:48:24.767Z,20.60
2022-09-26T06:49:06.844Z,22.29
2022-09-26T06:49:46.373Z,22.63
2022-09-26T06:50:27.462Z,24.74
2022-09-26T06:51:08.362Z,23.54
2022-09-26T06:51:52.744Z,22.25
2022-09-26T06:52:33.391Z,21.90
2022-09-26T06:53:13.440Z,22.26
2022-09-26T06:53:54.345Z,21.48
2022-09-26T06:54:34.441Z,21.88
2022-09-26T06:55:16.389Z,22.88
2022-09-26T06:55:56.468Z,22.90
2022-09-26T06:56:36.368Z,21.99
2022-09-26T06:57:16.445Z,20.59
2022-09-26T06:57:56.414Z,21.54
2022-09-26T06:58:36.431Z,21.49
2022-09-26T06:59:17.367Z,22.01
2022-09-26T06:59:57.475Z,22.21
2022-09-26T07:00:37.430Z,22.50
2022-09-26T07:01:18.506Z,22.04
2022-09-26T07:01:59.459Z,23.36
2022-09-26T07:03:02.655Z,22.29
2022-09-26T07:03:56.343Z,20.83
2022-09-26T07:04:50.369Z,22.02
2022-09-26T07:05:44.355Z,19.99
2022-09-26T07:06:38.380Z,19.69
2022-09-26T07:07:32.354Z,20.04
2022-09-26T07:08:19.408Z,19.69
2022-09-26T07:09:12.174Z,20.04
2022-09-26T07:09:59.429Z,20.14
2022-09-26T07:10:36.476Z,19.48
2022-09-26T07:12:09.402Z,19.85
2022-09-26T07:12:17.450Z,18.98
2022-09-26T07:13:11.331Z,20.64
2022-09-26T07:13:52.359Z,24.13
2022-09-26T07:14:50.089Z,20.23
2022-09-26T07:15:48.404Z,19.81
2022-09-26T07:16:42.485Z,21.52
2022-09-26T07:17:36.373Z,21.14
2022-09-26T07:18:30.344Z,20.80
2022-09-26T07:19:19.394Z,21.61
2022-09-26T07:19:58.404Z,21.15
2022-09-26T07:20:56.612Z,21.25
2022-09-26T07:21:30.413Z,21.02
2022-09-26T07:22:17.398Z,21.29
2022-09-26T07:22:52.979Z,22.19
2022-09-26T07:23:40.329Z,20.84
2022-09-26T07:24:14.532Z,22.09
2022-09-26T07:24:56.391Z,22.00
2022-09-26T07:25:39.490Z,23.11
2022-09-26T07:26:20.381Z,23.73
2022-09-26T07:27:01.276Z,21.73
2022-09-26T07:27:42.355Z,22.61
2022-09-26T07:28:22.472Z,24.88
2022-09-26T07:29:03.333Z,22.60
2022-09-26T07:29:43.700Z,23.12
2022-09-26T07:30:24.411Z,21.89
2022-09-26T07:31:05.464Z,21.00
2022-09-26T07:31:45.380Z,21.25
2022-09-26T07:32:27.441Z,22.24
2022-09-26T07:33:12.309Z,23.10
2022-09-26T07:33:52.886Z,22.04
2022-09-26T07:34:34.356Z,21.74
2022-09-26T07:35:14.516Z,22.27
2022-09-26T07:35:55.381Z,22.80
2022-09-26T07:36:35.692Z,22.30
2022-09-26T07:37:15.343Z,22.71
2022-09-26T07:37:59.046Z,23.46
2022-09-26T07:38:39.324Z,22.23
2022-09-26T07:39:19.440Z,21.08
2022-09-26T07:40:01.756Z,21.15
2022-09-26T07:40:45.316Z,21.96
2022-09-26T07:41:26.377Z,20.30
2022-09-26T07:42:07.197Z,20.81
2022-09-26T07:43:09.411Z,21.54
2022-09-26T07:46:07.156Z,20.42
2022-09-26T07:47:06.398Z,21.66
2022-09-26T07:48:04.863Z,20.60
2022-09-26T07:49:03.347Z,23.26
2022-09-26T07:50:01.679Z,21.81
2022-09-26T07:50:42.318Z,21.26
2022-09-26T07:51:24.232Z,24.35
2022-09-26T07:52:07.367Z,24.86
2022-09-26T07:52:51.919Z,24.61
2022-09-26T07:53:34.290Z,23.71
2022-09-26T07:54:14.525Z,24.54
2022-09-26T07:54:55.328Z,24.69
2022-09-26T07:55:55.340Z,25.11
2022-09-26T07:56:37.312Z,21.60
2022-09-26T07:57:26.340Z,21.51
2022-09-26T07:58:20.339Z,20.64
2022-09-26T07:59:14.285Z,21.73
2022-09-26T08:00:08.302Z,23.77
2022-09-26T08:01:02.330Z,24.02
2022-09-26T08:01:56.382Z,27.64
2022-09-26T08:02:43.387Z,27.58
2022-09-26T08:03:18.181Z,26.46
2022-09-26T08:04:05.275Z,23.30
2022-09-26T08:04:39.357Z,24.17
2022-09-26T08:05:26.303Z,23.80
2022-09-26T08:06:05.508Z,22.96
2022-09-26T08:06:52.276Z,24.15
2022-09-26T08:07:26.425Z,25.70
2022-09-26T08:08:06.416Z,32.49
2022-09-26T08:08:47.322Z,35.36
2022-09-26T08:09:28.465Z,27.45
2022-09-26T08:10:08.431Z,20.41
2022-09-26T08:10:50.270Z,16.54
2022-09-26T08:11:31.040Z,17.17
2022-09-26T08:12:11.347Z,16.56
2022-09-26T08:12:51.348Z,17.25
2022-09-26T08:13:33.335Z,18.63
2022-09-26T08:14:13.369Z,18.16
2022-09-26T08:14:55.289Z,18.81
2022-09-26T08:15:35.435Z,20.15
2022-09-26T08:16:16.331Z,19.36
2022-09-26T08:16:57.403Z,19.26
2022-09-26T08:17:40.284Z,20.50
2022-09-26T08:18:20.387Z,21.67
2022-09-26T08:19:01.336Z,24.05
2022-09-26T08:19:41.498Z,24.61
2022-09-26T08:20:21.345Z,20.77
2022-09-26T08:21:01.437Z,20.15
2022-09-26T08:21:42.314Z,20.31
2022-09-26T08:22:22.438Z,21.34
2022-09-26T08:23:03.288Z,22.74
2022-09-26T08:23:43.412Z,26.76
2022-09-26T08:24:23.322Z,27.99
2022-09-26T08:25:06.487Z,23.66
2022-09-26T08:25:48.260Z,21.83
2022-09-26T08:26:44.909Z,20.10
2022-09-26T08:27:39.303Z,19.45
2022-09-26T08:28:34.339Z,20.49
2022-09-26T08:29:30.333Z,19.81
2022-09-26T08:30:24.271Z,20.15
2022-09-26T08:31:19.309Z,20.04
2022-09-26T08:32:15.316Z,19.16
2022-09-26T08:33:09.277Z,19.33
2022-09-26T08:34:03.333Z,19.33
2022-09-26T08:34:51.328Z,21.60
2022-09-26T08:35:25.376Z,21.99
2022-09-26T08:36:17.275Z,18.45
2022-09-26T08:36:52.619Z,16.44
2022-09-26T08:37:39.254Z,16.90
2022-09-26T08:38:15.169Z,17.30
2022-09-26T08:39:03.267Z,18.54
2022-09-26T08:39:37.339Z,18.80
2022-09-26T08:40:18.298Z,21.54
2022-09-26T08:41:04.769Z,20.50
2022-09-26T08:42:16.297Z,19.36
2022-09-26T08:43:21.457Z,21.11
2022-09-26T08:44:39.274Z,23.25
2022-09-26T08:46:33.401Z,23.67
2022-09-26T08:47:38.269Z,18.66
2022-09-26T08:48:55.246Z,15.93
2022-09-26T08:50:08.259Z,18.33
2022-09-26T08:51:06.266Z,21.17
2022-09-26T08:51:59.292Z,17.80
2022-09-26T08:52:50.394Z,18.35
2022-09-26T08:53:48.298Z,18.38
2022-09-26T08:54:44.386Z,18.63
2022-09-26T08:55:37.267Z,19.65
2022-09-26T08:56:13.369Z,18.81
2022-09-26T08:57:04.285Z,18.26
2022-09-26T08:57:44.760Z,18.73
2022-09-26T08:58:44.239Z,18.29
2022-09-26T08:59:25.353Z,18.09
2022-09-26T09:00:28.235Z,18.33
2022-09-26T09:01:05.438Z,17.79
2022-09-26T09:01:53.364Z,18.00
2022-09-26T09:02:57.307Z,20.38
2022-09-26T09:04:15.415Z,19.27
2022-09-26T09:05:33.271Z,17.02
2022-09-26T09:06:28.241Z,16.71
2022-09-26T09:07:37.274Z,16.54
2022-09-26T09:08:28.337Z,17.56
2022-09-26T09:09:08.371Z,17.69
2022-09-26T09:09:48.248Z,15.91
2022-09-26T09:10:47.363Z,14.11
2022-09-26T09:11:49.118Z,12.27
2022-09-26T09:13:00.330Z,9.50
2022-09-26T09:13:57.283Z,9.18
2022-09-26T09:14:37.362Z,9.73
2022-09-26T09:15:40.248Z,8.54
2022-09-26T09:16:32.314Z,7.84
2022-09-26T09:17:29.216Z,8.21
2022-09-26T09:18:51.364Z,9.15
2022-09-26T09:19:57.274Z,9.91
2022-09-26T09:20:43.348Z,9.93
2022-09-26T09:21:29.230Z,9.49
2022-09-26T09:22:21.422Z,9.40
2022-09-26T09:23:10.200Z,9.31
2022-09-26T09:24:22.235Z,10.15
2022-09-26T09:25:26.261Z,11.63
2022-09-26T09:28:18.255Z,12.75
2022-09-26T09:29:24.234Z,11.57
2022-09-26T09:30:38.259Z,12.23
2022-09-26T09:31:34.265Z,13.59
2022-09-26T09:32:31.251Z,12.88
2022-09-26T09:33:41.234Z,13.50
2022-09-26T09:34:41.233Z,12.96
2022-09-26T09:35:48.253Z,11.45
2022-09-26T09:36:53.213Z,10.90
2022-09-26T09:37:55.207Z,11.57
2022-09-26T09:38:52.262Z,10.21
2022-09-26T09:39:55.235Z,11.56
2022-09-26T09:40:54.350Z,10.48
2022-09-26T09:42:00.228Z,11.70
2022-09-26T09:43:02.245Z,12.34
2022-09-26T09:44:01.271Z,12.29
2022-09-26T09:44:58.229Z,13.38
2022-09-26T09:46:02.281Z,12.50
2022-09-26T09:46:58.282Z,10.79
2022-09-26T09:47:53.256Z,10.27
2022-09-26T09:48:47.245Z,10.94
2022-09-26T09:49:41.259Z,11.95
2022-09-26T09:50:53.216Z,12.05
2022-09-26T09:51:51.260Z,11.65
2022-09-26T09:52:49.312Z,13.54
2022-09-26T09:53:51.188Z,12.79
2022-09-26T09:54:49.539Z,13.39
2022-09-26T09:55:51.217Z,13.09
2022-09-26T09:56:45.405Z,12.88
2022-09-26T09:57:49.263Z,13.14
2022-09-26T09:58:44.357Z,11.85
2022-09-26T09:59:32.201Z,12.60
2022-09-26T10:00:22.486Z,12.49
2022-09-26T10:01:22.242Z,12.14
2022-09-26T10:02:34.374Z,13.24
2022-09-26T10:03:31.230Z,11.45
2022-09-26T10:04:14.610Z,13.10
2022-09-26T10:05:06.195Z,12.20
2022-09-26T10:05:51.749Z,11.41
2022-09-26T10:06:45.393Z,12.44